Aviation Digital Data Service (ADDS)

Output produced by METARs form (0818 UTC 29 January 2015)
found at http://www.aviationweather.gov/adds/metars/
 
KPHL 290546Z 2906/3012 VRB04KT P6SM SKC 
     FM291700 15007KT P6SM BKN100 
     FM300100 17008KT 4SM -SN OVC040 
     FM300200 18007KT 2SM -SN FEW010 OVC020 
     FM300500 20006KT 5SM -SHSN FEW010 OVC025 
     FM300700 25009KT P6SM SCT025 OVC060